sensor_id;sensor_type;location;lat;lon;timestamp;pressure;altitude;pressure_sealevel;temperature
13497;BMP180;6820;49.374;8.452;2023-11-21T00:00:33;99914.44;;;17.81
13497;BMP180;6820;49.374;8.452;2023-11-21T00:04:34;99917.91;;;17.83
13497;BMP180;6820;49.374;8.452;2023-11-21T00:08:37;99911.09;;;17.85
13497;BMP180;6820;49.374;8.452;2023-11-21T00:12:38;99904.97;;;17.80
13497;BMP180;6820;49.374;8.452;2023-11-21T00:16:43;99909.09;;;17.72
13497;BMP180;6820;49.374;8.452;2023-11-21T00:20:45;99910.75;;;17.70
13497;BMP180;6820;49.374;8.452;2023-11-21T00:24:46;99907.31;;;17.70
13497;BMP180;6820;49.374;8.452;2023-11-21T00:28:49;99899.56;;;17.68
13497;BMP180;6820;49.374;8.452;2023-11-21T00:32:51;99906.19;;;17.59
13497;BMP180;6820;49.374;8.452;2023-11-21T00:36:53;99900.13;;;17.57
13497;BMP180;6820;49.374;8.452;2023-11-21T00:40:55;99899.16;;;17.52
13497;BMP180;6820;49.374;8.452;2023-11-21T00:44:57;99892.25;;;17.50
13497;BMP180;6820;49.374;8.452;2023-11-21T00:48:59;99904.34;;;17.55
13497;BMP180;6820;49.374;8.452;2023-11-21T00:53:01;99893.25;;;17.56
13497;BMP180;6820;49.374;8.452;2023-11-21T00:57:03;99891.69;;;17.61
13497;BMP180;6820;49.374;8.452;2023-11-21T01:01:05;99892.41;;;17.56
13497;BMP180;6820;49.374;8.452;2023-11-21T01:05:07;99902.78;;;17.62
13497;BMP180;6820;49.374;8.452;2023-11-21T01:09:09;99907.25;;;17.68
13497;BMP180;6820;49.374;8.452;2023-11-21T01:13:11;99902.22;;;17.71
13497;BMP180;6820;49.374;8.452;2023-11-21T01:17:12;99908.13;;;17.69
13497;BMP180;6820;49.374;8.452;2023-11-21T01:21:14;99912.38;;;17.68
13497;BMP180;6820;49.374;8.452;2023-11-21T01:25:16;99915.94;;;17.73
13497;BMP180;6820;49.374;8.452;2023-11-21T01:29:18;99916.06;;;17.78
13497;BMP180;6820;49.374;8.452;2023-11-21T01:33:22;99918.69;;;17.81
13497;BMP180;6820;49.374;8.452;2023-11-21T01:37:26;99912.69;;;17.80
13497;BMP180;6820;49.374;8.452;2023-11-21T01:41:29;99921.28;;;17.82
13497;BMP180;6820;49.374;8.452;2023-11-21T01:45:32;99914.50;;;17.84
13497;BMP180;6820;49.374;8.452;2023-11-21T01:49:35;99911.88;;;17.81
13497;BMP180;6820;49.374;8.452;2023-11-21T01:53:38;99910.09;;;17.79
13497;BMP180;6820;49.374;8.452;2023-11-21T01:57:40;99913.56;;;17.81
13497;BMP180;6820;49.374;8.452;2023-11-21T02:01:43;99906.66;;;17.78
13497;BMP180;6820;49.374;8.452;2023-11-21T02:05:45;99908.25;;;17.75
13497;BMP180;6820;49.374;8.452;2023-11-21T02:09:47;99912.59;;;17.76
13497;BMP180;6820;49.374;8.452;2023-11-21T02:13:49;99913.38;;;17.73
13497;BMP180;6820;49.374;8.452;2023-11-21T02:17:51;99900.69;;;17.78
13497;BMP180;6820;49.374;8.452;2023-11-21T02:21:56;99907.53;;;17.80
13497;BMP180;6820;49.374;8.452;2023-11-21T02:25:59;99908.50;;;17.84
13497;BMP180;6820;49.374;8.452;2023-11-21T02:30:06;99922.25;;;17.87
13497;BMP180;6820;49.374;8.452;2023-11-21T02:34:09;99911.94;;;17.84
13497;BMP180;6820;49.374;8.452;2023-11-21T02:38:10;99911.00;;;17.81
13497;BMP180;6820;49.374;8.452;2023-11-21T02:42:12;99916.91;;;17.78
13497;BMP180;6820;49.374;8.452;2023-11-21T02:46:14;99907.47;;;17.76
13497;BMP180;6820;49.374;8.452;2023-11-21T02:50:17;99910.09;;;17.79
13497;BMP180;6820;49.374;8.452;2023-11-21T02:54:21;99912.72;;;17.82
13497;BMP180;6820;49.374;8.452;2023-11-21T02:58:23;99908.50;;;17.84
13497;BMP180;6820;49.374;8.452;2023-11-21T03:02:25;99902.53;;;17.83
13497;BMP180;6820;49.374;8.452;2023-11-21T03:06:27;99912.81;;;17.85
13497;BMP180;6820;49.374;8.452;2023-11-21T03:10:29;99900.84;;;17.85
13497;BMP180;6820;49.374;8.452;2023-11-21T03:14:31;99899.13;;;17.84
13497;BMP180;6820;49.374;8.452;2023-11-21T03:18:34;99864.16;;;17.88
13497;BMP180;6820;49.374;8.452;2023-11-21T03:22:36;99911.09;;;17.85
13497;BMP180;6820;49.374;8.452;2023-11-21T03:26:38;99911.16;;;17.88
13497;BMP180;6820;49.374;8.452;2023-11-21T03:30:39;99914.63;;;17.89
13497;BMP180;6820;49.374;8.452;2023-11-21T03:34:55;99911.09;;;17.85
13497;BMP180;6820;49.374;8.452;2023-11-21T03:38:58;99921.41;;;17.87
13497;BMP180;6820;49.374;8.452;2023-11-21T03:42:59;99916.28;;;17.88
13497;BMP180;6820;49.374;8.452;2023-11-21T03:47:01;99921.41;;;17.87
13497;BMP180;6820;49.374;8.452;2023-11-21T03:51:03;99915.50;;;17.91
13497;BMP180;6820;49.374;8.452;2023-11-21T03:55:05;99914.63;;;17.89
13497;BMP180;6820;49.374;8.452;2023-11-21T03:59:07;99926.38;;;17.81
13497;BMP180;6820;49.374;8.452;2023-11-21T04:03:09;99928.22;;;17.86
13497;BMP180;6820;49.374;8.452;2023-11-21T04:07:10;99925.41;;;17.76
13497;BMP180;6820;49.374;8.452;2023-11-21T04:11:16;99928.06;;;17.80
13497;BMP180;6820;49.374;8.452;2023-11-21T04:15:19;99928.16;;;17.83
13497;BMP180;6820;49.374;8.452;2023-11-21T04:19:20;99938.44;;;17.85
13497;BMP180;6820;49.374;8.452;2023-11-21T04:23:22;99939.28;;;17.84
13497;BMP180;6820;49.374;8.452;2023-11-21T04:27:24;99944.41;;;17.84
13497;BMP180;6820;49.374;8.452;2023-11-21T04:31:25;99945.25;;;17.84
13497;BMP180;6820;49.374;8.452;2023-11-21T04:35:27;99954.66;;;17.85
13497;BMP180;6820;49.374;8.452;2023-11-21T04:39:29;99953.06;;;17.89
13497;BMP180;6820;49.374;8.452;2023-11-21T04:43:30;99956.50;;;17.89
13497;BMP180;6820;49.374;8.452;2023-11-21T04:47:32;99952.94;;;17.84
13497;BMP180;6820;49.374;8.452;2023-11-21T04:51:34;99960.59;;;17.83
13497;BMP180;6820;49.374;8.452;2023-11-21T04:55:35;99969.13;;;17.82
13497;BMP180;6820;49.374;8.452;2023-11-21T04:59:37;99975.97;;;17.83
13497;BMP180;6820;49.374;8.452;2023-11-21T05:03:39;99973.31;;;17.78
13497;BMP180;6820;49.374;8.452;2023-11-21T05:07:41;99980.16;;;17.79
13497;BMP180;6820;49.374;8.452;2023-11-21T05:11:44;99984.56;;;17.83
13497;BMP180;6820;49.374;8.452;2023-11-21T05:15:45;99985.41;;;17.84
13497;BMP180;6820;49.374;8.452;2023-11-21T05:19:47;99981.06;;;17.81
13497;BMP180;6820;49.374;8.452;2023-11-21T05:23:50;99994.75;;;17.82
13497;BMP180;6820;49.374;8.452;2023-11-21T05:27:52;99996.47;;;17.83
13497;BMP180;6820;49.374;8.452;2023-11-21T05:31:55;100003.97;;;17.75
13497;BMP180;6820;49.374;8.452;2023-11-21T05:35:57;100014.25;;;17.77
13497;BMP180;6820;49.374;8.452;2023-11-21T05:39:59;100019.44;;;17.78
13497;BMP180;6820;49.374;8.452;2023-11-21T05:44:06;100027.06;;;17.75
13497;BMP180;6820;49.374;8.452;2023-11-21T05:48:07;100033.06;;;17.77
13497;BMP180;6820;49.374;8.452;2023-11-21T05:52:09;100036.16;;;17.65
13497;BMP180;6820;49.374;8.452;2023-11-21T05:56:11;100034.44;;;17.65
13497;BMP180;6820;49.374;8.452;2023-11-21T06:00:14;100042.34;;;17.72
13497;BMP180;6820;49.374;8.452;2023-11-21T06:04:23;100043.22;;;17.73
13497;BMP180;6820;49.374;8.452;2023-11-21T06:08:26;100062.75;;;17.69
13497;BMP180;6820;49.374;8.452;2023-11-21T06:12:28;100065.03;;;17.59
13497;BMP180;6820;49.374;8.452;2023-11-21T06:16:29;100068.38;;;17.57
13497;BMP180;6820;49.374;8.452;2023-11-21T06:20:31;100065.69;;;17.54
13497;BMP180;6820;49.374;8.452;2023-11-21T06:24:33;100069.88;;;17.50
13497;BMP180;6820;49.374;8.452;2023-11-21T06:28:35;100081.75;;;17.47
13497;BMP180;6820;49.374;8.452;2023-11-21T06:32:38;100076.47;;;17.42
13497;BMP180;6820;49.374;8.452;2023-11-21T06:36:41;100085.78;;;17.39
13497;BMP180;6820;49.374;8.452;2023-11-21T06:40:42;100089.97;;;17.37
13497;BMP180;6820;49.374;8.452;2023-11-21T06:44:44;100090.63;;;17.30
13497;BMP180;6820;49.374;8.452;2023-11-21T06:48:46;100103.91;;;17.17
13497;BMP180;6820;49.374;8.452;2023-11-21T06:52:47;100105.31;;;17.09
13497;BMP180;6820;49.374;8.452;2023-11-21T06:56:50;100112.19;;;17.10
13497;BMP180;6820;49.374;8.452;2023-11-21T07:00:51;100118.97;;;17.08
13497;BMP180;6820;49.374;8.452;2023-11-21T07:04:56;100121.53;;;17.10
13497;BMP180;6820;49.374;8.452;2023-11-21T07:08:58;100128.47;;;17.12
13497;BMP180;6820;49.374;8.452;2023-11-21T07:13:00;100127.56;;;17.10
13497;BMP180;6820;49.374;8.452;2023-11-21T07:17:02;100128.56;;;17.15
13497;BMP180;6820;49.374;8.452;2023-11-21T07:21:04;100137.19;;;17.17
13497;BMP180;6820;49.374;8.452;2023-11-21T07:25:07;100151.81;;;17.21
13497;BMP180;6820;49.374;8.452;2023-11-21T07:29:11;100155.88;;;17.15
13497;BMP180;6820;49.374;8.452;2023-11-21T07:33:13;100158.69;;;17.22
13497;BMP180;6820;49.374;8.452;2023-11-21T07:37:15;100162.91;;;17.22
13497;BMP180;6820;49.374;8.452;2023-11-21T07:41:19;100165.69;;;17.28
13497;BMP180;6820;49.374;8.452;2023-11-21T07:45:31;100163.94;;;17.27
13497;BMP180;6820;49.374;8.452;2023-11-21T07:49:34;100172.19;;;17.18
13497;BMP180;6820;49.374;8.452;2023-11-21T07:53:36;100183.00;;;17.10
13497;BMP180;6820;49.374;8.452;2023-11-21T07:57:38;100189.06;;;17.12
13497;BMP180;6820;49.374;8.452;2023-11-21T08:01:39;100200.25;;;17.14
13497;BMP180;6820;49.374;8.452;2023-11-21T08:05:44;100187.88;;;17.27
13497;BMP180;6820;49.374;8.452;2023-11-21T08:09:46;100188.00;;;17.32
13497;BMP180;6820;49.374;8.452;2023-11-21T08:13:50;100193.34;;;17.39
13497;BMP180;6820;49.374;8.452;2023-11-21T08:17:52;100196.06;;;17.43
13497;BMP180;6820;49.374;8.452;2023-11-21T08:21:54;100205.13;;;17.33
13497;BMP180;6820;49.374;8.452;2023-11-21T08:25:56;100207.63;;;17.31
13497;BMP180;6820;49.374;8.452;2023-11-21T08:29:57;100216.25;;;17.35
13497;BMP180;6820;49.374;8.452;2023-11-21T08:34:00;100209.59;;;17.39
13497;BMP180;6820;49.374;8.452;2023-11-21T08:38:04;100217.25;;;17.38
13497;BMP180;6820;49.374;8.452;2023-11-21T08:42:06;100224.34;;;17.46
13497;BMP180;6820;49.374;8.452;2023-11-21T08:46:08;100224.34;;;17.46
13497;BMP180;6820;49.374;8.452;2023-11-21T08:50:11;100231.03;;;17.43
13497;BMP180;6820;49.374;8.452;2023-11-21T08:54:13;100234.53;;;17.45
13497;BMP180;6820;49.374;8.452;2023-11-21T08:58:15;100257.47;;;17.40
13497;BMP180;6820;49.374;8.452;2023-11-21T09:02:18;100248.06;;;17.41
13497;BMP180;6820;49.374;8.452;2023-11-21T09:06:21;100255.78;;;17.42
13497;BMP180;6820;49.374;8.452;2023-11-21T09:10:22;100250.00;;;17.48
13497;BMP180;6820;49.374;8.452;2023-11-21T09:14:28;100262.13;;;17.53
13497;BMP180;6820;49.374;8.452;2023-11-21T09:18:29;100260.41;;;17.52
13497;BMP180;6820;49.374;8.452;2023-11-21T09:22:32;100265.38;;;17.48
13497;BMP180;6820;49.374;8.452;2023-11-21T09:26:34;100269.38;;;17.40
13497;BMP180;6820;49.374;8.452;2023-11-21T09:30:36;100280.59;;;17.17
13497;BMP180;6820;49.374;8.452;2023-11-21T09:34:38;100290.22;;;17.01
13497;BMP180;6820;49.374;8.452;2023-11-21T09:38:41;100295.66;;;17.10
13497;BMP180;6820;49.374;8.452;2023-11-21T09:42:50;100291.84;;;17.22
13497;BMP180;6820;49.374;8.452;2023-11-21T09:46:54;100306.59;;;17.29
13497;BMP180;6820;49.374;8.452;2023-11-21T09:50:57;100310.22;;;17.11
13497;BMP180;6820;49.374;8.452;2023-11-21T09:55:01;100310.66;;;17.00
13497;BMP180;6820;49.374;8.452;2023-11-21T09:59:05;100315.56;;;16.94
13497;BMP180;6820;49.374;8.452;2023-11-21T10:03:10;100322.88;;;17.08
13497;BMP180;6820;49.374;8.452;2023-11-21T10:07:13;100322.22;;;17.12
13497;BMP180;6820;49.374;8.452;2023-11-21T10:11:19;100331.63;;;17.13
13497;BMP180;6820;49.374;8.452;2023-11-21T10:15:24;100334.38;;;17.17
13497;BMP180;6820;49.374;8.452;2023-11-21T10:19:29;100326.34;;;17.08
13497;BMP180;6820;49.374;8.452;2023-11-21T10:23:30;100333.44;;;17.15
13497;BMP180;6820;49.374;8.452;2023-11-21T10:27:32;100327.59;;;17.19
13497;BMP180;6820;49.374;8.452;2023-11-21T10:31:34;100325.16;;;17.22
13497;BMP180;6820;49.374;8.452;2023-11-21T10:35:45;100333.06;;;17.30
13497;BMP180;6820;49.374;8.452;2023-11-21T10:39:59;100334.94;;;17.35
13497;BMP180;6820;49.374;8.452;2023-11-21T10:44:04;100337.75;;;17.41
13497;BMP180;6820;49.374;8.452;2023-11-21T10:48:09;100349.91;;;17.48
13497;BMP180;6820;49.374;8.452;2023-11-21T10:52:13;100346.22;;;17.40
13497;BMP180;6820;49.374;8.452;2023-11-21T10:56:23;100346.97;;;17.36
13497;BMP180;6820;49.374;8.452;2023-11-21T11:00:26;100355.56;;;17.38
13497;BMP180;6820;49.374;8.452;2023-11-21T11:04:28;100363.94;;;17.33
13497;BMP180;6820;49.374;8.452;2023-11-21T11:08:31;100346.78;;;17.32
13497;BMP180;6820;49.374;8.452;2023-11-21T11:12:33;100356.69;;;17.46
13497;BMP180;6820;49.374;8.452;2023-11-21T11:16:36;100363.84;;;17.56
13497;BMP180;6820;49.374;8.452;2023-11-21T11:20:42;100355.47;;;17.61
13497;BMP180;6820;49.374;8.452;2023-11-21T11:25:02;100355.03;;;17.48
13497;BMP180;6820;49.374;8.452;2023-11-21T11:29:34;100363.91;;;17.57
13497;BMP180;6820;49.374;8.452;2023-11-21T11:33:55;100363.34;;;17.66
13497;BMP180;6820;49.374;8.452;2023-11-21T11:37:57;100350.69;;;17.70
13497;BMP180;6820;49.374;8.452;2023-11-21T11:42:02;100360.53;;;17.84
13497;BMP180;6820;49.374;8.452;2023-11-21T11:46:05;100362.34;;;17.88
13497;BMP180;6820;49.374;8.452;2023-11-21T11:50:11;100367.25;;;18.07
13497;BMP180;6820;49.374;8.452;2023-11-21T11:54:35;100357.44;;;18.20
13497;BMP180;6820;49.374;8.452;2023-11-21T11:58:39;100356.19;;;18.35
13497;BMP180;6820;49.374;8.452;2023-11-21T12:02:44;100359.31;;;18.53
13497;BMP180;6820;49.374;8.452;2023-11-21T12:06:46;100369.59;;;18.55
13497;BMP180;6820;49.374;8.452;2023-11-21T12:10:48;100367.84;;;18.25
13497;BMP180;6820;49.374;8.452;2023-11-21T12:14:50;100382.22;;;18.20
13497;BMP180;6820;49.374;8.452;2023-11-21T12:18:52;100374.25;;;18.11
13497;BMP180;6820;49.374;8.452;2023-11-21T12:22:57;100371.94;;;18.20
13497;BMP180;6820;49.374;8.452;2023-11-21T12:27:02;100373.13;;;18.29
13497;BMP180;6820;49.374;8.452;2023-11-21T12:31:04;100376.97;;;18.44
13497;BMP180;6820;49.374;8.452;2023-11-21T12:35:25;100376.69;;;18.63
13497;BMP180;6820;49.374;8.452;2023-11-21T12:39:28;100378.19;;;18.55
13497;BMP180;6820;49.374;8.452;2023-11-21T12:43:30;100385.06;;;18.56
13497;BMP180;6820;49.374;8.452;2023-11-21T12:47:34;100390.22;;;18.58
13497;BMP180;6820;49.374;8.452;2023-11-21T12:51:36;100390.63;;;18.42
13497;BMP180;6820;49.374;8.452;2023-11-21T12:55:38;100401.69;;;18.41
13497;BMP180;6820;49.374;8.452;2023-11-21T12:59:41;100394.78;;;18.66
13497;BMP180;6820;49.374;8.452;2023-11-21T13:03:47;100401.94;;;18.77
13497;BMP180;6820;49.374;8.452;2023-11-21T13:07:50;100399.59;;;18.85
13497;BMP180;6820;49.374;8.452;2023-11-21T13:12:01;100389.34;;;18.85
13497;BMP180;6820;49.374;8.452;2023-11-21T13:16:05;100398.19;;;18.94
13497;BMP180;6820;49.374;8.452;2023-11-21T13:20:08;100399.91;;;18.95
13497;BMP180;6820;49.374;8.452;2023-11-21T13:24:17;100416.09;;;18.91
13497;BMP180;6820;49.374;8.452;2023-11-21T13:28:19;100416.81;;;18.87
13497;BMP180;6820;49.374;8.452;2023-11-21T13:32:24;100431.97;;;18.80
13497;BMP180;6820;49.374;8.452;2023-11-21T13:36:25;100421.56;;;18.75
13497;BMP180;6820;49.374;8.452;2023-11-21T13:40:32;100430.66;;;18.64
13497;BMP180;6820;49.374;8.452;2023-11-21T13:44:35;100420.47;;;18.67
13497;BMP180;6820;49.374;8.452;2023-11-21T13:48:39;100432.38;;;18.65
13497;BMP180;6820;49.374;8.452;2023-11-21T13:52:44;100438.34;;;18.64
13497;BMP180;6820;49.374;8.452;2023-11-21T13:56:46;100435.84;;;18.66
13497;BMP180;6820;49.374;8.452;2023-11-21T14:00:48;100444.31;;;18.63
13497;BMP180;6820;49.374;8.452;2023-11-21T14:04:57;100458.75;;;18.60
13497;BMP180;6820;49.374;8.452;2023-11-21T14:09:02;100456.88;;;18.55
13497;BMP180;6820;49.374;8.452;2023-11-21T14:13:06;100463.59;;;18.51
13497;BMP180;6820;49.374;8.452;2023-11-21T14:17:08;100465.22;;;18.48
13497;BMP180;6820;49.374;8.452;2023-11-21T14:21:12;100472.63;;;18.39
13497;BMP180;6820;49.374;8.452;2023-11-21T14:25:16;100475.97;;;18.36
13497;BMP180;6820;49.374;8.452;2023-11-21T14:29:20;100477.47;;;18.30
13497;BMP180;6820;49.374;8.452;2023-11-21T14:33:23;100479.00;;;18.25
13497;BMP180;6820;49.374;8.452;2023-11-21T14:37:26;100484.13;;;18.25
13497;BMP180;6820;49.374;8.452;2023-11-21T14:41:27;100492.78;;;18.27
13497;BMP180;6820;49.374;8.452;2023-11-21T14:45:30;100496.78;;;18.19
13497;BMP180;6820;49.374;8.452;2023-11-21T14:49:31;100500.03;;;18.14
13497;BMP180;6820;49.374;8.452;2023-11-21T14:53:45;100504.00;;;18.04
13497;BMP180;6820;49.374;8.452;2023-11-21T14:57:55;100508.84;;;17.98
13497;BMP180;6820;49.374;8.452;2023-11-21T15:01:57;100518.72;;;18.10
13497;BMP180;6820;49.374;8.452;2023-11-21T15:06:04;100523.94;;;18.13
13497;BMP180;6820;49.374;8.452;2023-11-21T15:10:41;100533.97;;;18.07
13497;BMP180;6820;49.374;8.452;2023-11-21T15:14:51;100532.19;;;18.04
13497;BMP180;6820;49.374;8.452;2023-11-21T15:18:58;100535.44;;;18.00
13497;BMP180;6820;49.374;8.452;2023-11-21T15:22:59;100533.72;;;18.01
13497;BMP180;6820;49.374;8.452;2023-11-21T15:27:01;100536.19;;;17.98
13497;BMP180;6820;49.374;8.452;2023-11-21T15:31:05;100542.72;;;17.89
13497;BMP180;6820;49.374;8.452;2023-11-21T15:35:07;100546.75;;;17.82
13497;BMP180;6820;49.374;8.452;2023-11-21T15:39:13;100547.47;;;17.78
13497;BMP180;6820;49.374;8.452;2023-11-21T15:43:16;100558.53;;;17.77
13497;BMP180;6820;49.374;8.452;2023-11-21T15:47:19;100556.78;;;17.76
13497;BMP180;6820;49.374;8.452;2023-11-21T15:51:21;100563.72;;;17.79
13497;BMP180;6820;49.374;8.452;2023-11-21T15:55:22;100560.28;;;17.78
13497;BMP180;6820;49.374;8.452;2023-11-21T15:59:24;100557.63;;;17.75
13497;BMP180;6820;49.374;8.452;2023-11-21T16:03:31;100564.38;;;17.73
13497;BMP180;6820;49.374;8.452;2023-11-21T16:07:35;100573.03;;;17.77
13497;BMP180;6820;49.374;8.452;2023-11-21T16:11:37;100574.94;;;17.82
13497;BMP180;6820;49.374;8.452;2023-11-21T16:15:39;100582.53;;;17.79
13497;BMP180;6820;49.374;8.452;2023-11-21T16:19:40;100594.22;;;17.71
13497;BMP180;6820;49.374;8.452;2023-11-21T16:23:44;100605.78;;;17.61
13497;BMP180;6820;49.374;8.452;2023-11-21T16:27:46;100601.19;;;17.52
13497;BMP180;6820;49.374;8.452;2023-11-21T16:31:48;100619.88;;;17.50
13497;BMP180;6820;49.374;8.452;2023-11-21T16:35:54;100629.09;;;17.45
13497;BMP180;6820;49.374;8.452;2023-11-21T16:39:56;100633.16;;;17.40
13497;BMP180;6820;49.374;8.452;2023-11-21T16:43:58;100640.97;;;17.43
13497;BMP180;6820;49.374;8.452;2023-11-21T16:48:00;100644.56;;;17.48
13497;BMP180;6820;49.374;8.452;2023-11-21T16:52:04;100650.53;;;17.47
13497;BMP180;6820;49.374;8.452;2023-11-21T16:56:08;100647.09;;;17.46
13497;BMP180;6820;49.374;8.452;2023-11-21T17:00:10;100649.91;;;17.54
13497;BMP180;6820;49.374;8.452;2023-11-21T17:04:13;100660.00;;;17.49
13497;BMP180;6820;49.374;8.452;2023-11-21T17:08:25;100672.81;;;17.49
13497;BMP180;6820;49.374;8.452;2023-11-21T17:12:26;100678.81;;;17.50
13497;BMP180;6820;49.374;8.452;2023-11-21T17:16:29;100684.16;;;17.56
13497;BMP180;6820;49.374;8.452;2023-11-21T17:20:30;100679.41;;;17.65
13497;BMP180;6820;49.374;8.452;2023-11-21T17:24:32;100692.34;;;17.68
13497;BMP180;6820;49.374;8.452;2023-11-21T17:28:35;100698.97;;;17.63
13497;BMP180;6820;49.374;8.452;2023-11-21T17:32:37;100702.47;;;17.65
13497;BMP180;6820;49.374;8.452;2023-11-21T17:36:40;100704.03;;;17.61
13497;BMP180;6820;49.374;8.452;2023-11-21T17:40:42;100710.16;;;17.65
13497;BMP180;6820;49.374;8.452;2023-11-21T17:44:46;100713.59;;;17.65
13497;BMP180;6820;49.374;8.452;2023-11-21T17:48:48;100709.88;;;17.57
13497;BMP180;6820;49.374;8.452;2023-11-21T17:52:50;100715.28;;;17.65
13497;BMP180;6820;49.374;8.452;2023-11-21T17:56:52;100717.97;;;17.68
13497;BMP180;6820;49.374;8.452;2023-11-21T18:00:53;100720.63;;;17.70
13497;BMP180;6820;49.374;8.452;2023-11-21T18:04:55;100726.56;;;17.69
13497;BMP180;6820;49.374;8.452;2023-11-21T18:08:58;100741.25;;;17.73
13497;BMP180;6820;49.374;8.452;2023-11-21T18:13:01;100747.31;;;17.75
13497;BMP180;6820;49.374;8.452;2023-11-21T18:17:03;100755.81;;;17.74
13497;BMP180;6820;49.374;8.452;2023-11-21T18:21:05;100755.66;;;17.70
13497;BMP180;6820;49.374;8.452;2023-11-21T18:25:08;100757.81;;;17.60
13497;BMP180;6820;49.374;8.452;2023-11-21T18:29:10;100756.22;;;17.63
13497;BMP180;6820;49.374;8.452;2023-11-21T18:33:12;100762.09;;;17.61
13497;BMP180;6820;49.374;8.452;2023-11-21T18:37:14;100774.06;;;17.60
13497;BMP180;6820;49.374;8.452;2023-11-21T18:41:22;100785.72;;;17.54
13497;BMP180;6820;49.374;8.452;2023-11-21T18:45:24;100786.44;;;17.50
13497;BMP180;6820;49.374;8.452;2023-11-21T18:49:26;100789.63;;;17.44
13497;BMP180;6820;49.374;8.452;2023-11-21T18:53:30;100795.75;;;17.48
13497;BMP180;6820;49.374;8.452;2023-11-21T18:57:33;100795.50;;;17.42
13497;BMP180;6820;49.374;8.452;2023-11-21T19:01:35;100795.72;;;17.46
13497;BMP180;6820;49.374;8.452;2023-11-21T19:05:36;100801.59;;;17.44
13497;BMP180;6820;49.374;8.452;2023-11-21T19:09:39;100810.06;;;17.43
13497;BMP180;6820;49.374;8.452;2023-11-21T19:13:41;100809.28;;;17.44
13497;BMP180;6820;49.374;8.452;2023-11-21T19:17:43;100817.28;;;17.31
13497;BMP180;6820;49.374;8.452;2023-11-21T19:21:45;100826.31;;;17.23
13497;BMP180;6820;49.374;8.452;2023-11-21T19:25:47;100832.72;;;17.33
13497;BMP180;6820;49.374;8.452;2023-11-21T19:29:49;100832.09;;;17.38
13497;BMP180;6820;49.374;8.452;2023-11-21T19:33:51;100840.00;;;17.44
13497;BMP180;6820;49.374;8.452;2023-11-21T19:37:54;100843.44;;;17.44
13497;BMP180;6820;49.374;8.452;2023-11-21T19:41:56;100840.81;;;17.43
13497;BMP180;6820;49.374;8.452;2023-11-21T19:45:57;100843.31;;;17.41
13497;BMP180;6820;49.374;8.452;2023-11-21T19:50:01;100855.19;;;17.39
13497;BMP180;6820;49.374;8.452;2023-11-21T19:54:02;100860.13;;;17.35
13497;BMP180;6820;49.374;8.452;2023-11-21T19:58:07;100866.16;;;17.36
13497;BMP180;6820;49.374;8.452;2023-11-21T20:02:09;100871.56;;;17.43
13497;BMP180;6820;49.374;8.452;2023-11-21T20:06:10;100881.44;;;17.34
13497;BMP180;6820;49.374;8.452;2023-11-21T20:10:12;100880.31;;;17.28
13497;BMP180;6820;49.374;8.452;2023-11-21T20:14:15;100882.06;;;17.29
13497;BMP180;6820;49.374;8.452;2023-11-21T20:18:17;100865.38;;;17.18
13497;BMP180;6820;49.374;8.452;2023-11-21T20:22:20;100906.69;;;17.25
13497;BMP180;6820;49.374;8.452;2023-11-21T20:26:23;100904.16;;;17.27
13497;BMP180;6820;49.374;8.452;2023-11-21T20:30:26;100900.34;;;17.17
13497;BMP180;6820;49.374;8.452;2023-11-21T20:34:32;100907.97;;;17.16
13497;BMP180;6820;49.374;8.452;2023-11-21T20:38:34;100914.91;;;17.18
13497;BMP180;6820;49.374;8.452;2023-11-21T20:42:35;100919.59;;;17.09
13497;BMP180;6820;49.374;8.452;2023-11-21T20:46:43;100929.84;;;17.09
13497;BMP180;6820;49.374;8.452;2023-11-21T20:50:45;100925.34;;;17.23
13497;BMP180;6820;49.374;8.452;2023-11-21T20:54:47;100925.56;;;17.27
13497;BMP180;6820;49.374;8.452;2023-11-21T20:58:49;100932.47;;;17.30
13497;BMP180;6820;49.374;8.452;2023-11-21T21:02:50;100928.72;;;17.22
13497;BMP180;6820;49.374;8.452;2023-11-21T21:06:54;100920.75;;;17.16
13497;BMP180;6820;49.374;8.452;2023-11-21T21:10:55;100929.47;;;17.19
13497;BMP180;6820;49.374;8.452;2023-11-21T21:14:59;100932.03;;;17.19
13497;BMP180;6820;49.374;8.452;2023-11-21T21:19:01;100925.09;;;17.17
13497;BMP180;6820;49.374;8.452;2023-11-21T21:23:04;100920.97;;;17.20
13497;BMP180;6820;49.374;8.452;2023-11-21T21:27:06;100915.03;;;17.21
13497;BMP180;6820;49.374;8.452;2023-11-21T21:31:07;100920.28;;;17.24
13497;BMP180;6820;49.374;8.452;2023-11-21T21:35:09;100930.97;;;17.35
13497;BMP180;6820;49.374;8.452;2023-11-21T21:39:13;100938.41;;;17.10
13497;BMP180;6820;49.374;8.452;2023-11-21T21:43:15;100942.72;;;16.92
13497;BMP180;6820;49.374;8.452;2023-11-21T21:47:17;100951.88;;;16.69
13497;BMP180;6820;49.374;8.452;2023-11-21T21:51:19;100947.47;;;16.47
13497;BMP180;6820;49.374;8.452;2023-11-21T21:55:22;100960.75;;;16.41
13497;BMP180;6820;49.374;8.452;2023-11-21T21:59:24;100959.88;;;16.23
13497;BMP180;6820;49.374;8.452;2023-11-21T22:03:26;100973.97;;;15.98
13497;BMP180;6820;49.374;8.452;2023-11-21T22:07:28;100995.00;;;15.92
13497;BMP180;6820;49.374;8.452;2023-11-21T22:11:30;100996.97;;;15.81
13497;BMP180;6820;49.374;8.452;2023-11-21T22:15:31;100997.44;;;15.74
13497;BMP180;6820;49.374;8.452;2023-11-21T22:19:34;101006.50;;;15.67
13497;BMP180;6820;49.374;8.452;2023-11-21T22:23:36;101018.38;;;15.67
13497;BMP180;6820;49.374;8.452;2023-11-21T22:27:39;101030.53;;;15.71
13497;BMP180;6820;49.374;8.452;2023-11-21T22:31:41;101030.59;;;15.72
13497;BMP180;6820;49.374;8.452;2023-11-21T22:35:43;101042.63;;;15.75
13497;BMP180;6820;49.374;8.452;2023-11-21T22:39:46;101043.50;;;15.75
13497;BMP180;6820;49.374;8.452;2023-11-21T22:43:48;101049.59;;;15.77
13497;BMP180;6820;49.374;8.452;2023-11-21T22:47:50;101051.03;;;15.72
13497;BMP180;6820;49.374;8.452;2023-11-21T22:51:52;101055.22;;;15.70
13497;BMP180;6820;49.374;8.452;2023-11-21T22:55:53;101059.09;;;15.64
13497;BMP180;6820;49.374;8.452;2023-11-21T22:59:55;101069.34;;;15.48
13497;BMP180;6820;49.374;8.452;2023-11-21T23:03:57;101074.38;;;15.47
13497;BMP180;6820;49.374;8.452;2023-11-21T23:07:58;101077.00;;;15.48
13497;BMP180;6820;49.374;8.452;2023-11-21T23:12:01;101087.78;;;15.43
13497;BMP180;6820;49.374;8.452;2023-11-21T23:16:03;101086.28;;;15.30
13497;BMP180;6820;49.374;8.452;2023-11-21T23:20:06;101099.50;;;15.23
13497;BMP180;6820;49.374;8.452;2023-11-21T23:24:11;101103.91;;;15.26